首页
METAR-TAF:

METAR-TAF

机场 :

布萊茲諾頓皇家空軍基地

Brize Norton, 英格兰

纬度: 51-45N, 经度: 001-35W, 海拔: 88米

当前天气观测

该预报发布于39分钟前的12:20 UTC
风速7节,风向西南
温度 16°C
湿度 82%
气压 999 hPa
能见度10公里或以上
多云层高于1500英尺
小雨

METAR: EGVN 231220Z 22007KT 9999 -RA BKN015 16/13 Q0999 TEMPO BKN014

时间: 13:59 (12:59 UTC)

预报

该预报发布于2小时和17分钟前的10:42 UTC
预报有效从23日的 12点(UTC)到 24日的 12点(UTC)
风速10节,风向西转西南
能见度10公里或以上
散云层高于1200英尺
成为
从 23日的 12点(UTC)到 23日的 14点(UTC)
散云层高于3000英尺
几率 40% :
短暂存在
从 23日的 12点(UTC)到 23日的 14点(UTC)
能見度: 7000
短暂存在
从 23日的 16点(UTC)到 23日的 21点(UTC)
能見度: 4000
多云层高于1800英尺, 积雨云.
阵雨
短暂存在
从 24日的 03点(UTC)到 24日的 07点(UTC)
能見度: 7000
散云层高于2000英尺
阵雨
几率 40% :
短暂存在
从 24日的 09点(UTC)到 24日的 12点(UTC)
风速15节,风向西南,有时为25节阵风

TAF: EGVN 231042Z 2312/2412 24010KT 9999 SCT012 BECMG 2312/2314 SCT030 PROB40 TEMPO 2312/2314 7000 RA TEMPO 2316/2321 4000 SHRA BKN018CB TEMPO 2403/2407 7000 SHRA SCT020 PROB40 TEMPO 2409/2412 23015G25KT

超过4000个机场的气象观测和天气预报(METAR&TAF报告)。

可查询的气象台以黄色和红色小点在地图上表示。

将鼠标移到小点上方,可查看气象台名称。

然后点击查看天气观测和预报。

如需切换地图:点击带黑十字的绿色按钮放大地图;点击带横线的绿色按钮缩小地图;或者点击绿色箭头查看邻近地区的地图。


METAR-TAF: